Time;durP1;ratioP1;P1;durP2;ratioP2;P2;SDS_P1;SDS_P2;PMS_P1;PMS_P2;Temp;Humidity;BMP_temperature;BMP_pressure;BME280_temperature;BME280_humidity;BME280_pressure;Samples;Min_cycle;Max_cycle;Signal;HPM_P1;HPM_P2
2023/03/10 00:01:51;;;;;;;13.73;4.45;;;11.00;99.90;;;;;;4960947;28;20093;-72
2023/03/10 00:04:17;;;;;;;8.38;4.15;;;11.00;99.90;;;;;;4978697;28;20029;-73
2023/03/10 00:06:42;;;;;;;10.35;4.50;;;11.00;99.90;;;;;;4978289;28;20026;-73
2023/03/10 00:09:11;;;;;;;10.00;4.00;;;10.90;99.90;;;;;;4978743;28;20023;-72
2023/03/10 00:11:36;;;;;;;8.95;3.80;;;10.90;99.90;;;;;;4960926;28;20034;-72
2023/03/10 00:14:02;;;;;;;13.45;4.05;;;10.90;99.90;;;;;;4978439;28;20022;-72
2023/03/10 00:16:29;;;;;;;11.57;3.78;;;10.90;99.90;;;;;;4978248;28;20550;-72
2023/03/10 00:18:55;;;;;;;10.15;4.22;;;11.00;99.90;;;;;;4960969;28;20026;-72
2023/03/10 00:21:24;;;;;;;10.05;4.40;;;11.00;99.90;;;;;;4978053;28;20483;-72
2023/03/10 00:23:50;;;;;;;10.10;3.95;;;11.00;99.90;;;;;;4978406;28;20434;-72
2023/03/10 00:26:18;;;;;;;15.73;4.15;;;11.00;99.90;;;;;;4978161;28;20023;-72
2023/03/10 00:28:44;;;;;;;13.55;4.10;;;11.00;99.90;;;;;;4960913;28;20027;-72
2023/03/10 00:31:16;;;;;;;14.60;3.67;;;10.90;99.90;;;;;;4978064;28;20077;-72
2023/03/10 00:33:42;;;;;;;12.27;3.83;;;10.80;99.90;;;;;;4977938;28;20106;-72
2023/03/10 00:36:15;;;;;;;8.52;3.38;;;10.70;99.90;;;;;;4974520;28;20066;-71
2023/03/10 00:38:42;;;;;;;10.88;4.47;;;10.70;99.90;;;;;;4975292;28;20043;-72
2023/03/10 00:41:14;;;;;;;9.20;3.85;;;10.60;99.90;;;;;;4978138;28;20023;-72
2023/03/10 00:43:40;;;;;;;12.30;4.30;;;10.50;99.90;;;;;;4960541;28;20461;-72
2023/03/10 00:46:06;;;;;;;13.68;3.92;;;10.50;99.90;;;;;;4978156;28;20434;-72
2023/03/10 00:48:33;;;;;;;15.13;5.07;;;10.50;99.90;;;;;;4977583;28;20031;-72
2023/03/10 00:50:58;;;;;;;21.73;4.95;;;10.50;99.90;;;;;;4960580;28;20023;-72
2023/03/10 00:53:25;;;;;;;21.23;4.22;;;10.60;99.90;;;;;;4977858;28;20038;-72
2023/03/10 00:56:00;;;;;;;14.68;4.43;;;10.60;99.90;;;;;;4978138;28;20027;-72
2023/03/10 00:58:26;;;;;;;8.95;3.47;;;10.70;99.90;;;;;;4977749;28;20027;-72
2023/03/10 01:00:53;;;;;;;11.32;3.85;;;10.60;99.90;;;;;;4960533;28;20031;-72
2023/03/10 01:03:20;;;;;;;12.95;3.65;;;10.50;99.90;;;;;;4977590;28;20025;-72
2023/03/10 01:05:46;;;;;;;11.32;4.03;;;10.40;99.90;;;;;;4978120;28;20042;-72
2023/03/10 01:08:12;;;;;;;8.40;4.22;;;10.30;99.90;;;;;;4977497;28;20158;-72
2023/03/10 01:10:38;;;;;;;11.23;3.97;;;10.20;99.90;;;;;;4978025;28;20043;-72
2023/03/10 01:13:03;;;;;;;10.23;4.00;;;10.10;99.90;;;;;;4960228;28;20039;-72
2023/03/10 01:15:29;;;;;;;12.07;4.53;;;10.00;99.90;;;;;;4977776;28;20046;-72
2023/03/10 01:17:55;;;;;;;15.43;4.80;;;10.00;99.90;;;;;;4960232;28;20026;-72
2023/03/10 01:20:20;;;;;;;11.85;4.40;;;10.00;99.90;;;;;;4977794;28;20029;-72
2023/03/10 01:22:46;;;;;;;9.77;4.47;;;10.00;99.90;;;;;;4977532;28;20019;-72
2023/03/10 01:25:15;;;;;;;12.65;4.55;;;9.90;99.90;;;;;;4977795;28;20033;-72
2023/03/10 01:27:42;;;;;;;15.40;4.30;;;9.90;99.90;;;;;;4977562;28;20049;-72
2023/03/10 01:30:08;;;;;;;9.38;4.25;;;9.90;99.90;;;;;;4977846;28;20033;-72
2023/03/10 01:32:34;;;;;;;9.60;4.45;;;9.90;99.90;;;;;;4977390;28;20057;-72
2023/03/10 01:34:59;;;;;;;14.63;4.38;;;9.80;99.90;;;;;;4977654;28;20031;-72
2023/03/10 01:37:25;;;;;;;11.57;4.22;;;9.80;99.90;;;;;;4977210;28;20050;-72
2023/03/10 01:39:51;;;;;;;9.07;3.95;;;9.80;99.90;;;;;;4977547;28;20023;-71
2023/03/10 01:42:16;;;;;;;11.15;4.43;;;9.80;99.90;;;;;;4977373;28;20015;-72
2023/03/10 01:44:42;;;;;;;9.60;3.90;;;9.80;99.90;;;;;;4977573;28;20086;-72
2023/03/10 01:47:07;;;;;;;15.05;4.70;;;9.70;99.90;;;;;;4978522;28;20027;-72
2023/03/10 01:49:42;;;;;;;10.38;5.55;;;9.70;99.90;;;;;;4981054;28;20031;-72
2023/03/10 01:52:11;;;;;;;9.95;4.43;;;9.70;99.90;;;;;;4980713;28;20050;-72
2023/03/10 01:54:48;;;;;;;6.22;3.67;;;9.70;99.90;;;;;;4980888;28;20390;-72
2023/03/10 01:57:15;;;;;;;10.77;4.18;;;9.70;99.90;;;;;;4980798;28;20014;-72
2023/03/10 01:59:41;;;;;;;9.55;3.63;;;9.70;99.90;;;;;;4963301;28;20034;-72
2023/03/10 02:02:08;;;;;;;6.38;4.00;;;9.60;99.90;;;;;;4980427;28;20439;-72
2023/03/10 02:04:40;;;;;;;11.88;4.13;;;9.60;99.90;;;;;;4963389;28;20035;-71
2023/03/10 02:07:07;;;;;;;13.07;4.65;;;9.60;99.90;;;;;;4980457;28;20030;-72
2023/03/10 02:09:37;;;;;;;9.15;3.90;;;9.60;99.90;;;;;;4980590;28;20038;-71
2023/03/10 02:12:04;;;;;;;8.35;3.78;;;9.60;99.90;;;;;;4979721;28;20023;-72
2023/03/10 02:14:31;;;;;;;10.48;4.70;;;9.70;99.90;;;;;;4980366;28;20058;-72
2023/03/10 02:16:57;;;;;;;11.57;3.88;;;9.70;99.90;;;;;;4980517;28;20027;-72
2023/03/10 02:19:42;;;;;;;8.30;4.05;;;9.70;99.90;;;;;;4980303;28;20387;-72
2023/03/10 02:22:11;;;;;;;6.43;3.72;;;9.70;99.90;;;;;;4980129;28;20054;-71
2023/03/10 02:24:52;;;;;;;8.80;3.25;;;9.70;99.90;;;;;;4980177;28;20077;-72
2023/03/10 02:27:23;;;;;;;12.48;3.40;;;9.70;99.90;;;;;;4974652;28;20501;-72
2023/03/10 02:29:55;;;;;;;;;;;9.80;99.90;;;;;;4980763;28;20026;-72
2023/03/10 02:32:22;;;;;;;5.35;3.20;;;9.80;99.90;;;;;;4974623;28;19906;-72
2023/03/10 02:34:47;;;;;;;7.22;3.83;;;9.80;99.90;;;;;;4979988;28;20663;-72
2023/03/10 02:37:26;;;;;;;5.68;3.63;;;10.00;99.90;;;;;;4979803;28;20070;-72
2023/03/10 02:39:52;;;;;;;9.82;4.45;;;10.30;99.90;;;;;;4979907;28;20030;-72
2023/03/10 02:42:19;;;;;;;7.85;3.60;;;10.40;99.90;;;;;;4962622;28;20023;-72
2023/03/10 02:44:47;;;;;;;8.00;3.38;;;10.50;99.90;;;;;;4979982;28;20030;-72
2023/03/10 02:47:14;;;;;;;12.15;3.85;;;10.50;99.90;;;;;;4979771;28;20135;-72
2023/03/10 02:49:41;;;;;;;10.48;3.60;;;10.60;99.90;;;;;;4979897;28;20106;-72
2023/03/10 02:52:15;;;;;;;8.25;3.78;;;10.80;99.90;;;;;;4979453;28;20483;-72
2023/03/10 02:54:41;;;;;;;10.52;3.72;;;10.90;99.90;;;;;;4979692;28;20023;-72
2023/03/10 02:57:07;;;;;;;6.85;3.30;;;11.00;99.90;;;;;;4962275;28;20018;-72
2023/03/10 02:59:33;;;;;;;7.88;3.30;;;11.20;99.90;;;;;;4978870;28;20019;-72
2023/03/10 03:01:58;;;;;;;3.85;3.17;;;11.20;99.90;;;;;;4979260;28;20025;-72
2023/03/10 03:04:24;;;;;;;6.43;3.65;;;11.20;99.90;;;;;;4979657;28;20427;-73
2023/03/10 03:06:49;;;;;;;6.40;3.05;;;11.20;99.90;;;;;;4979402;28;20011;-72
2023/03/10 03:09:15;;;;;;;9.70;3.83;;;11.30;99.90;;;;;;4962305;28;20031;-72
2023/03/10 03:11:41;;;;;;;6.00;3.22;;;11.30;99.90;;;;;;4979326;28;20026;-72
2023/03/10 03:14:06;;;;;;;12.85;4.57;;;11.30;99.90;;;;;;4962404;28;20026;-72
2023/03/10 03:16:32;;;;;;;17.58;4.13;;;11.30;99.90;;;;;;4978997;28;20023;-72
2023/03/10 03:18:58;;;;;;;5.03;3.42;;;11.20;99.90;;;;;;4979483;28;20030;-72
2023/03/10 03:21:24;;;;;;;10.88;4.45;;;11.30;99.90;;;;;;4961636;28;20045;-72
2023/03/10 03:23:49;;;;;;;9.98;3.70;;;11.30;99.90;;;;;;4961910;28;20033;-71
2023/03/10 03:26:25;;;;;;;6.97;4.28;;;11.40;99.90;;;;;;4979035;28;20034;-73
2023/03/10 03:28:52;;;;;;;10.65;3.63;;;11.50;99.90;;;;;;4979408;28;20146;-72
2023/03/10 03:31:22;;;;;;;9.13;4.15;;;11.40;99.90;;;;;;4979093;28;20150;-72
2023/03/10 03:33:48;;;;;;;12.20;4.33;;;11.50;99.90;;;;;;4979080;28;20483;-72
2023/03/10 03:36:14;;;;;;;5.85;3.38;;;11.40;99.90;;;;;;4978734;28;20459;-72
2023/03/10 03:38:40;;;;;;;6.65;3.45;;;11.20;99.90;;;;;;4978816;28;20054;-72
2023/03/10 03:41:06;;;;;;;7.15;3.60;;;11.20;99.90;;;;;;4978794;28;20034;-72
2023/03/10 03:43:33;;;;;;;11.80;3.65;;;11.10;99.90;;;;;;4978930;28;20038;-72
2023/03/10 03:45:59;;;;;;;13.52;4.90;;;11.10;99.90;;;;;;4961338;28;20427;-72
2023/03/10 03:48:25;;;;;;;11.98;4.10;;;11.20;99.90;;;;;;4978593;28;20046;-72
2023/03/10 03:50:50;;;;;;;7.65;3.20;;;11.30;99.90;;;;;;4961308;28;20110;-72
2023/03/10 03:53:16;;;;;;;9.10;3.80;;;11.40;99.90;;;;;;4978688;28;20442;-73
2023/03/10 03:55:42;;;;;;;8.93;3.40;;;11.50;99.90;;;;;;4961266;28;20039;-72
2023/03/10 03:58:07;;;;;;;9.40;3.28;;;11.60;99.90;;;;;;4978753;28;20106;-72
2023/03/10 04:00:34;;;;;;;8.20;3.55;;;11.70;99.90;;;;;;4978163;28;20506;-72
2023/03/10 04:03:00;;;;;;;11.82;3.85;;;11.60;99.90;;;;;;4978439;28;20495;-72
2023/03/10 04:05:26;;;;;;;8.90;3.95;;;11.70;99.90;;;;;;4960388;28;20031;-72
2023/03/10 04:07:52;;;;;;;7.88;3.80;;;11.70;99.90;;;;;;4960580;28;20030;-72
2023/03/10 04:10:20;;;;;;;9.82;3.80;;;11.70;99.90;;;;;;4960651;28;20030;-71
2023/03/10 04:12:46;;;;;;;11.30;4.15;;;11.70;99.90;;;;;;4978144;28;20019;-72
2023/03/10 04:15:11;;;;;;;6.43;3.30;;;11.70;99.90;;;;;;4961022;28;20498;-72
2023/03/10 04:17:37;;;;;;;12.88;3.38;;;11.60;99.90;;;;;;4978112;28;20403;-72
2023/03/10 04:20:05;;;;;;;9.52;3.15;;;11.70;99.90;;;;;;4978145;28;20029;-72
2023/03/10 04:22:31;;;;;;;12.32;3.95;;;11.80;99.90;;;;;;4977997;28;20022;-72
2023/03/10 04:24:56;;;;;;;9.15;2.85;;;11.80;99.90;;;;;;4978125;28;20034;-72
2023/03/10 04:27:22;;;;;;;10.32;4.25;;;11.90;99.90;;;;;;4978207;28;20027;-73
2023/03/10 04:29:48;;;;;;;17.73;5.00;;;11.90;99.90;;;;;;4960782;28;20086;-72
2023/03/10 04:32:13;;;;;;;4.95;3.05;;;11.90;99.90;;;;;;4978183;28;20438;-72
2023/03/10 04:34:39;;;;;;;14.35;4.00;;;12.00;99.90;;;;;;4977860;28;20026;-72
2023/03/10 04:37:05;;;;;;;18.38;3.83;;;12.00;99.90;;;;;;4978027;28;20050;-72
2023/03/10 04:39:30;;;;;;;7.82;3.28;;;12.20;99.90;;;;;;4977974;28;20023;-72
2023/03/10 04:41:56;;;;;;;7.20;3.20;;;12.30;99.90;;;;;;4978121;28;20530;-71
2023/03/10 04:44:22;;;;;;;20.58;4.25;;;12.20;99.90;;;;;;4977944;28;20041;-71
2023/03/10 04:46:47;;;;;;;9.68;3.58;;;12.30;99.90;;;;;;4977843;28;20522;-71
2023/03/10 04:49:14;;;;;;;8.52;3.10;;;12.30;99.90;;;;;;4978063;28;20062;-73
2023/03/10 04:51:40;;;;;;;9.55;3.72;;;12.30;99.90;;;;;;4960509;28;20111;-71
2023/03/10 04:54:06;;;;;;;8.10;3.03;;;12.30;99.90;;;;;;4960575;28;20030;-73
2023/03/10 04:56:31;;;;;;;9.85;4.00;;;12.30;99.90;;;;;;4977917;28;20023;-72
2023/03/10 04:58:57;;;;;;;13.43;3.45;;;12.40;99.90;;;;;;4977885;28;20490;-72
2023/03/10 05:01:23;;;;;;;10.30;4.03;;;12.40;99.90;;;;;;4977776;28;20491;-71
2023/03/10 05:03:49;;;;;;;14.98;4.07;;;12.40;99.90;;;;;;4977796;28;20069;-72
2023/03/10 05:06:17;;;;;;;14.55;4.30;;;12.40;99.90;;;;;;4977703;28;20174;-72
2023/03/10 05:08:42;;;;;;;12.20;3.67;;;12.50;99.90;;;;;;4977669;28;20041;-72
2023/03/10 05:11:08;;;;;;;11.85;4.65;;;12.50;99.90;;;;;;4960485;28;20022;-72
2023/03/10 05:13:34;;;;;;;16.40;5.57;;;12.50;99.90;;;;;;4977907;28;20091;-71
2023/03/10 05:16:00;;;;;;;19.23;5.28;;;12.60;99.90;;;;;;4977765;28;20073;-71
2023/03/10 05:18:26;;;;;;;14.88;4.68;;;12.60;99.90;;;;;;4960099;28;20027;-72
2023/03/10 05:20:54;;;;;;;14.63;5.18;;;12.70;99.90;;;;;;4977714;28;20034;-71
2023/03/10 05:23:20;;;;;;;13.55;4.38;;;12.70;99.90;;;;;;4981042;28;20463;-72
2023/03/10 05:25:45;;;;;;;16.55;4.93;;;12.70;99.90;;;;;;4963888;28;20105;-72
2023/03/10 05:28:11;;;;;;;23.35;5.10;;;12.70;99.90;;;;;;4981488;28;20022;-72
2023/03/10 05:30:37;;;;;;;26.95;5.93;;;12.70;99.90;;;;;;4981150;28;20022;-72
2023/03/10 05:33:02;;;;;;;19.17;4.75;;;12.80;99.90;;;;;;4981038;28;20030;-72
2023/03/10 05:35:28;;;;;;;28.90;5.38;;;12.80;99.90;;;;;;4981031;28;20031;-72
2023/03/10 05:37:54;;;;;;;21.02;5.22;;;12.80;99.90;;;;;;4963505;28;20122;-70
2023/03/10 05:40:19;;;;;;;22.35;5.55;;;12.80;99.90;;;;;;4981063;28;20030;-72
2023/03/10 05:42:47;;;;;;;16.60;4.60;;;12.80;99.90;;;;;;4981091;28;20031;-72
2023/03/10 05:45:13;;;;;;;24.88;5.63;;;12.70;99.90;;;;;;4980921;28;20391;-72
2023/03/10 05:47:39;;;;;;;25.52;6.47;;;12.80;99.90;;;;;;4980692;28;20042;-71
2023/03/10 05:50:05;;;;;;;21.15;5.40;;;12.80;99.90;;;;;;4963465;28;20027;-72
2023/03/10 05:52:31;;;;;;;20.50;5.75;;;12.70;99.90;;;;;;4962859;28;20084;-72
2023/03/10 05:54:56;;;;;;;21.33;4.80;;;12.80;99.90;;;;;;4980735;28;20118;-73
2023/03/10 05:57:22;;;;;;;19.15;4.13;;;12.70;99.90;;;;;;4963695;28;20018;-73
2023/03/10 05:59:47;;;;;;;20.25;5.32;;;12.70;99.90;;;;;;4963336;28;20503;-72
2023/03/10 06:02:13;;;;;;;22.05;5.68;;;12.60;99.90;;;;;;4963058;28;20023;-73
2023/03/10 06:04:39;;;;;;;16.95;5.55;;;12.50;99.90;;;;;;4980647;28;20054;-72
2023/03/10 06:07:04;;;;;;;18.45;5.00;;;12.50;99.90;;;;;;4980513;28;20023;-73
2023/03/10 06:09:31;;;;;;;26.73;6.97;;;12.50;99.90;;;;;;4980654;28;20023;-72
2023/03/10 06:11:57;;;;;;;13.82;4.88;;;12.50;99.90;;;;;;4980475;28;20022;-72
2023/03/10 06:14:24;;;;;;;21.67;5.20;;;12.50;99.90;;;;;;4980397;28;20019;-72
2023/03/10 06:16:52;;;;;;;19.83;6.00;;;12.60;99.90;;;;;;4980184;28;20023;-72
2023/03/10 06:19:18;;;;;;;24.33;4.75;;;12.60;99.90;;;;;;4980387;28;20549;-72
2023/03/10 06:21:44;;;;;;;28.15;6.38;;;12.60;99.90;;;;;;4980205;28;20106;-71
2023/03/10 06:24:09;;;;;;;19.65;5.45;;;12.60;99.90;;;;;;4962848;28;20026;-71
2023/03/10 06:26:35;;;;;;;22.70;6.13;;;12.60;99.90;;;;;;4980198;28;20038;-71
2023/03/10 06:29:01;;;;;;;25.52;5.75;;;12.60;99.90;;;;;;4963007;28;20033;-71
2023/03/10 06:31:27;;;;;;;15.20;4.95;;;12.50;99.90;;;;;;4980028;28;20101;-72
2023/03/10 06:33:53;;;;;;;24.55;6.10;;;12.60;99.90;;;;;;4961579;28;20027;-72
2023/03/10 06:36:20;;;;;;;23.17;6.43;;;12.60;99.90;;;;;;4979899;28;20109;-71
2023/03/10 06:38:46;;;;;;;18.00;5.60;;;12.70;99.90;;;;;;4979795;28;20050;-71
2023/03/10 06:41:12;;;;;;;23.85;5.75;;;12.60;99.90;;;;;;4979939;28;20018;-71
2023/03/10 06:43:38;;;;;;;17.17;4.65;;;12.60;99.90;;;;;;4979826;28;20501;-71
2023/03/10 06:46:07;;;;;;;27.10;6.47;;;12.70;99.90;;;;;;4962627;28;20402;-71
2023/03/10 06:48:34;;;;;;;17.27;5.07;;;12.70;99.90;;;;;;4979544;28;20050;-71
2023/03/10 06:50:59;;;;;;;15.85;4.97;;;12.70;99.90;;;;;;4979616;28;20545;-71
2023/03/10 06:53:28;;;;;;;10.27;4.10;;;12.70;99.90;;;;;;4962416;28;20470;-72
2023/03/10 06:55:59;;;;;;;21.08;4.85;;;12.80;99.90;;;;;;4979488;28;20469;-71
2023/03/10 06:58:24;;;;;;;11.77;4.75;;;12.80;99.90;;;;;;4979503;28;20023;-72
2023/03/10 07:00:50;;;;;;;16.70;5.28;;;12.80;99.90;;;;;;4979680;28;20027;-72
2023/03/10 07:03:15;;;;;;;18.52;4.55;;;12.70;99.90;;;;;;4979433;28;20083;-73
2023/03/10 07:05:41;;;;;;;15.77;4.43;;;12.70;99.90;;;;;;4969281;28;20038;-71
2023/03/10 07:08:07;;;;;;;19.65;4.63;;;12.70;99.90;;;;;;4962129;28;20027;-71
2023/03/10 07:10:32;;;;;;;20.30;6.55;;;12.70;99.90;;;;;;4979708;28;20022;-71
2023/03/10 07:12:58;;;;;;;17.33;4.53;;;12.70;99.90;;;;;;4961882;28;20031;-71
2023/03/10 07:15:25;;;;;;;16.27;4.72;;;12.70;99.90;;;;;;4976258;28;20109;-72
2023/03/10 07:17:51;;;;;;;25.10;8.60;;;12.70;99.90;;;;;;4978924;28;20031;-71
2023/03/10 07:20:18;;;;;;;22.95;5.43;;;12.70;99.90;;;;;;4979341;28;20097;-71
2023/03/10 07:22:44;;;;;;;22.85;5.75;;;12.80;99.90;;;;;;4979091;28;20025;-72
2023/03/10 07:25:10;;;;;;;24.33;4.85;;;12.80;99.90;;;;;;4978896;28;20337;-71
2023/03/10 07:27:35;;;;;;;23.67;5.80;;;12.80;99.90;;;;;;4961620;28;20058;-72
2023/03/10 07:30:01;;;;;;;23.65;4.70;;;12.70;99.90;;;;;;4962024;28;20030;-72
2023/03/10 07:32:27;;;;;;;18.58;7.25;;;12.70;99.90;;;;;;4979026;28;20058;-72
2023/03/10 07:34:53;;;;;;;18.50;4.63;;;12.80;99.90;;;;;;4978870;28;20030;-72
2023/03/10 07:37:18;;;;;;;30.63;8.07;;;12.80;99.90;;;;;;4978638;28;20042;-72
2023/03/10 07:39:44;;;;;;;20.13;6.05;;;12.90;99.90;;;;;;4978801;28;20033;-72
2023/03/10 07:42:10;;;;;;;20.95;5.38;;;13.00;99.90;;;;;;4979036;28;20054;-72
2023/03/10 07:44:35;;;;;;;31.73;7.90;;;13.00;99.90;;;;;;4978201;28;20031;-72
2023/03/10 07:47:01;;;;;;;22.98;5.30;;;13.10;99.90;;;;;;4978708;28;20110;-72
2023/03/10 07:49:27;;;;;;;28.48;6.82;;;13.10;99.90;;;;;;4977539;28;20042;-72
2023/03/10 07:51:52;;;;;;;25.65;7.43;;;13.20;99.90;;;;;;4978575;28;20023;-72
2023/03/10 07:54:18;;;;;;;29.05;6.32;;;13.30;99.90;;;;;;4978620;28;20026;-72
2023/03/10 07:56:44;;;;;;;24.23;6.63;;;13.30;99.90;;;;;;4978485;28;20026;-72
2023/03/10 07:59:09;;;;;;;27.75;6.38;;;13.20;99.90;;;;;;4978873;28;20042;-72
2023/03/10 08:01:35;;;;;;;20.15;6.43;;;13.20;99.90;;;;;;4977890;28;20050;-72
2023/03/10 08:04:01;;;;;;;21.27;7.22;;;13.20;99.90;;;;;;4978495;28;20052;-71
2023/03/10 08:06:28;;;;;;;14.23;4.70;;;13.10;99.90;;;;;;4978362;28;20027;-71
2023/03/10 08:08:54;;;;;;;11.18;4.05;;;12.90;99.90;;;;;;4978329;28;20019;-71
2023/03/10 08:11:20;;;;;;;11.20;4.35;;;12.70;99.90;;;;;;4975932;28;20479;-71
2023/03/10 08:13:47;;;;;;;17.55;5.93;;;12.30;99.90;;;;;;4984287;28;20123;-71
2023/03/10 08:16:13;;;;;;;14.35;5.00;;;12.20;99.90;;;;;;4974249;28;20080;-71
2023/03/10 08:18:39;;;;;;;16.25;5.85;;;12.10;99.90;;;;;;4992105;28;20026;-70
2023/03/10 08:21:05;;;;;;;22.00;5.40;;;12.10;99.90;;;;;;4986911;28;20510;-70
2023/03/10 08:23:32;;;;;;;22.20;4.85;;;12.00;99.90;;;;;;4991097;28;20403;-70
2023/03/10 08:26:06;;;;;;;20.38;4.97;;;11.80;99.90;;;;;;4969844;28;20028;-70
2023/03/10 08:28:33;;;;;;;26.70;6.03;;;11.70;99.90;;;;;;4990311;28;20029;-71
2023/03/10 08:31:09;;;;;;;9.45;4.28;;;11.70;99.90;;;;;;4984003;28;20027;-71
2023/03/10 08:33:35;;;;;;;51.35;22.15;;;11.60;99.90;;;;;;4983792;28;20037;-71
2023/03/10 08:36:10;;;;;;;25.40;6.65;;;11.50;99.90;;;;;;4984694;28;20027;-71
2023/03/10 08:38:36;;;;;;;34.75;7.40;;;11.50;99.90;;;;;;4990820;28;20050;-70
2023/03/10 08:41:14;;;;;;;22.50;5.68;;;11.50;99.90;;;;;;4969873;28;20025;-71
2023/03/10 08:43:40;;;;;;;15.80;6.38;;;11.50;99.90;;;;;;4988399;28;20034;-71
2023/03/10 08:46:06;;;;;;;18.45;5.72;;;11.60;99.90;;;;;;4984389;28;20026;-71
2023/03/10 08:48:32;;;;;;;13.52;4.53;;;11.80;99.90;;;;;;4990859;28;20035;-70
2023/03/10 08:50:58;;;;;;;17.80;5.75;;;12.00;99.90;;;;;;4987261;28;20102;-72
2023/03/10 08:53:24;;;;;;;22.25;5.80;;;12.20;99.90;;;;;;4990226;28;20461;-71
2023/03/10 08:55:49;;;;;;;18.88;5.88;;;12.30;99.90;;;;;;4992358;28;20101;-71
2023/03/10 08:58:15;;;;;;;19.88;6.55;;;12.30;99.90;;;;;;4994205;28;20063;-70
2023/03/10 09:00:42;;;;;;;19.38;6.30;;;12.40;99.90;;;;;;4992362;28;20514;-70
2023/03/10 09:03:09;;;;;;;20.20;5.55;;;12.50;99.90;;;;;;4993908;28;20074;-70
2023/03/10 09:05:36;;;;;;;23.00;7.50;;;12.70;99.90;;;;;;4977949;28;20022;-70
2023/03/10 09:08:03;;;;;;;13.73;4.60;;;12.80;99.90;;;;;;4995818;28;20031;-71
2023/03/10 09:10:28;;;;;;;21.90;5.47;;;13.00;99.90;;;;;;4994607;28;20118;-71
2023/03/10 09:12:54;;;;;;;22.20;4.55;;;13.20;99.90;;;;;;4975155;28;20062;-70
2023/03/10 09:15:20;;;;;;;24.58;6.22;;;13.50;99.90;;;;;;4997096;28;20018;-70
2023/03/10 09:17:46;;;;;;;16.65;4.97;;;13.50;99.90;;;;;;4994014;28;20022;-70
2023/03/10 09:20:14;;;;;;;10.40;3.67;;;13.50;99.90;;;;;;4990054;28;20022;-70
2023/03/10 09:22:40;;;;;;;28.08;4.68;;;13.40;99.90;;;;;;4975212;28;20410;-69
2023/03/10 09:25:06;;;;;;;12.25;4.40;;;13.50;99.90;;;;;;4995931;28;20030;-70
2023/03/10 09:27:31;;;;;;;20.75;5.78;;;13.70;99.90;;;;;;4988129;28;20094;-70
2023/03/10 09:29:57;;;;;;;59.00;23.55;;;13.80;99.90;;;;;;4980871;28;20081;-70
2023/03/10 09:32:23;;;;;;;22.15;6.45;;;13.80;99.90;;;;;;4972754;28;20034;-71
2023/03/10 09:34:49;;;;;;;22.02;5.25;;;13.70;99.90;;;;;;4992240;28;20030;-70
2023/03/10 09:37:15;;;;;;;33.38;6.95;;;13.60;99.90;;;;;;4991498;28;20184;-70
2023/03/10 09:39:41;;;;;;;20.83;5.60;;;13.60;99.90;;;;;;4991910;28;20041;-70
2023/03/10 09:42:38;;;;;;;24.85;6.95;;;13.70;99.90;;;;;;4990717;28;20044;-70
2023/03/10 09:45:31;;;;;;;16.90;4.80;;;13.80;99.90;;;;;;4989139;28;20026;-70
2023/03/10 09:48:07;;;;;;;30.58;6.28;;;13.90;99.90;;;;;;4993377;28;20398;-70
2023/03/10 09:50:36;;;;;;;25.70;7.28;;;14.00;99.90;;;;;;4987240;28;20031;-70
2023/03/10 09:53:17;;;;;;;24.08;6.30;;;14.20;99.90;;;;;;4996195;28;20022;-70
2023/03/10 09:55:44;;;;;;;18.50;4.35;;;14.30;99.90;;;;;;4992124;28;20034;-70
2023/03/10 09:58:38;;;;;;;22.75;4.40;;;14.40;99.90;;;;;;4992071;28;20372;-70
2023/03/10 10:01:05;;;;;;;24.02;5.47;;;14.60;99.90;;;;;;4985274;28;20049;-70
2023/03/10 10:03:43;;;;;;;21.23;5.28;;;14.60;99.90;;;;;;4991514;28;20019;-70
2023/03/10 10:06:16;;;;;;;29.02;6.03;;;14.70;99.90;;;;;;4990356;28;20018;-70
2023/03/10 10:09:04;;;;;;;28.20;6.03;;;14.70;99.90;;;;;;4992952;28;20165;-70
2023/03/10 10:11:30;;;;;;;21.75;5.47;;;14.60;99.90;;;;;;4980251;28;20041;-71
2023/03/10 10:14:23;;;;;;;26.02;6.47;;;14.80;99.90;;;;;;4993683;28;20026;-71
2023/03/10 10:17:07;;;;;;;15.73;4.45;;;15.00;99.90;;;;;;4989990;28;20045;-71
2023/03/10 10:19:35;;;;;;;19.27;5.75;;;15.00;99.90;;;;;;4986944;28;20037;-70
2023/03/10 10:22:26;;;;;;;12.35;3.45;;;14.90;99.90;;;;;;4975893;28;20076;-71
2023/03/10 10:25:07;;;;;;;21.73;5.28;;;14.90;99.90;;;;;;4989409;28;20027;-71
2023/03/10 10:27:34;;;;;;;21.75;5.03;;;14.80;99.90;;;;;;4973865;28;20018;-71
2023/03/10 10:30:25;;;;;;;11.18;3.80;;;14.60;99.90;;;;;;4998130;28;20026;-71
2023/03/10 10:33:05;;;;;;;19.20;5.60;;;14.70;99.90;;;;;;4977943;28;20035;-70
2023/03/10 10:35:39;;;;;;;10.68;3.63;;;14.80;99.90;;;;;;4992115;28;20553;-71
2023/03/10 10:38:08;;;;;;;22.13;5.30;;;14.90;99.90;;;;;;4968541;28;20195;-71
2023/03/10 10:40:55;;;;;;;17.50;4.93;;;14.90;99.90;;;;;;4966411;28;20431;-72
2023/03/10 10:43:22;;;;;;;22.60;5.18;;;15.10;99.90;;;;;;4973723;28;20135;-71
2023/03/10 10:45:56;;;;;;;16.40;4.43;;;15.00;99.90;;;;;;4967296;28;20082;-71
2023/03/10 10:48:37;;;;;;;14.82;4.10;;;14.80;99.90;;;;;;4971287;28;20025;-71
2023/03/10 10:51:05;;;;;;;15.43;4.40;;;14.70;99.90;;;;;;4963892;28;20053;-71
2023/03/10 10:53:35;;;;;;;15.23;4.35;;;14.60;99.90;;;;;;4971502;28;20038;-72
2023/03/10 10:56:05;;;;;;;21.08;4.93;;;14.50;99.90;;;;;;4968288;28;20037;-71
2023/03/10 10:58:36;;;;;;;23.38;5.47;;;14.60;99.90;;;;;;4969014;28;20101;-70
2023/03/10 11:01:03;;;;;;;;;;;14.60;99.90;;;;;;4967023;28;20466;-70
2023/03/10 11:03:31;;;;;;;20.98;5.20;;;14.60;99.90;;;;;;4969469;28;20017;-71
2023/03/10 11:05:57;;;;;;;23.13;5.45;;;14.70;99.90;;;;;;4973896;28;20031;-71
2023/03/10 11:08:25;;;;;;;16.48;4.57;;;14.60;99.90;;;;;;4967983;28;20484;-71
2023/03/10 11:11:17;;;;;;;20.38;4.40;;;14.60;99.90;;;;;;4965999;28;20123;-71
2023/03/10 11:14:20;;;;;;;22.80;4.60;;;14.60;99.90;;;;;;4961900;28;20046;-72
2023/03/10 11:16:56;;;;;;;30.85;6.78;;;14.70;99.90;;;;;;4969691;28;20097;-71
2023/03/10 11:19:34;;;;;;;30.77;6.13;;;14.70;99.90;;;;;;4971465;28;20023;-71
2023/03/10 11:22:12;;;;;;;26.45;8.18;;;14.80;99.90;;;;;;4968443;28;20026;-71
2023/03/10 11:25:13;;;;;;;14.30;4.97;;;14.90;99.90;;;;;;4972001;28;20113;-71
2023/03/10 11:27:41;;;;;;;22.55;5.57;;;15.00;99.90;;;;;;4978719;28;20090;-71
2023/03/10 11:30:17;;;;;;;24.40;5.55;;;15.10;99.90;;;;;;4972932;28;20031;-70
2023/03/10 11:32:55;;;;;;;24.80;6.18;;;15.30;99.90;;;;;;4966673;28;20051;-71
2023/03/10 11:35:47;;;;;;;26.42;6.22;;;15.40;99.90;;;;;;4969329;28;20054;-71
2023/03/10 11:38:35;;;;;;;18.92;4.95;;;15.50;99.90;;;;;;4984163;28;20038;-71
2023/03/10 11:41:12;;;;;;;23.10;4.95;;;15.60;99.90;;;;;;4987028;28;20030;-71
2023/03/10 11:43:56;;;;;;;35.92;6.45;;;15.70;99.90;;;;;;4989498;28;20027;-71
2023/03/10 11:46:35;;;;;;;22.90;5.13;;;15.80;99.90;;;;;;4989552;28;20026;-71
2023/03/10 11:49:06;;;;;;;16.58;4.40;;;15.80;99.90;;;;;;4989410;28;20018;-71
2023/03/10 11:51:50;;;;;;;27.20;6.35;;;15.90;99.90;;;;;;4989824;28;20026;-71
2023/03/10 11:54:39;;;;;;;17.55;5.50;;;15.90;99.90;;;;;;4990773;28;20026;-71
2023/03/10 11:57:21;;;;;;;25.05;5.85;;;15.90;99.90;;;;;;4987918;28;20034;-70
2023/03/10 11:59:58;;;;;;;18.70;4.63;;;15.80;99.90;;;;;;4995144;28;20101;-71
2023/03/10 12:02:42;;;;;;;32.22;5.35;;;15.70;99.90;;;;;;4969302;28;20386;-71
2023/03/10 12:05:16;;;;;;;38.88;5.20;;;15.80;99.90;;;;;;4990606;28;20137;-71
2023/03/10 12:07:45;;;;;;;9.50;2.35;;;15.80;99.90;;;;;;4987474;28;20108;-71
2023/03/10 12:10:11;;;;;;;13.77;3.85;;;15.80;99.90;;;;;;4972576;28;20510;-71
2023/03/10 12:12:39;;;;;;;17.63;4.38;;;15.70;99.90;;;;;;4989829;28;20097;-71
2023/03/10 12:15:26;;;;;;;18.98;4.55;;;15.80;99.90;;;;;;4990265;28;20030;-71
2023/03/10 12:17:53;;;;;;;22.95;6.30;;;15.80;99.90;;;;;;4973689;28;20495;-71
2023/03/10 12:20:19;;;;;;;27.13;4.50;;;15.90;99.90;;;;;;4993033;28;20018;-71
2023/03/10 12:22:45;;;;;;;10.13;3.58;;;16.10;99.90;;;;;;4986434;28;20026;-71
2023/03/10 12:25:31;;;;;;;13.57;3.65;;;16.30;99.90;;;;;;4991964;28;20090;-71
2023/03/10 12:28:15;;;;;;;8.48;3.03;;;16.30;99.90;;;;;;4973082;28;20030;-71
2023/03/10 12:30:59;;;;;;;12.80;3.45;;;16.20;99.90;;;;;;4984081;28;20049;-70
2023/03/10 12:33:36;;;;;;;21.10;4.68;;;16.30;99.90;;;;;;4995071;28;20022;-71
2023/03/10 12:36:36;;;;;;;13.82;3.10;;;16.30;99.90;;;;;;4985910;28;20053;-72
2023/03/10 12:39:26;;;;;;;13.55;4.28;;;16.30;99.90;;;;;;4947911;28;20123;-71
2023/03/10 12:41:56;;;;;;;10.50;2.83;;;16.00;99.90;;;;;;4988099;28;20026;-71
2023/03/10 12:44:34;;;;;;;10.20;3.67;;;15.90;99.90;;;;;;4970348;28;20117;-71
2023/03/10 12:47:25;;;;;;;17.55;4.07;;;15.90;99.90;;;;;;4986583;28;20131;-71
2023/03/10 12:49:57;;;;;;;15.63;4.50;;;15.90;99.90;;;;;;4986130;28;20011;-71
2023/03/10 12:52:43;;;;;;;17.08;3.65;;;15.90;99.90;;;;;;4987392;28;20038;-71